createdAt,value
2018-01-02T00:00:33.838Z,0
2018-01-02T00:01:14.370Z,0
2018-01-02T00:01:54.905Z,0
2018-01-02T00:02:35.414Z,0
2018-01-02T00:03:15.952Z,0
2018-01-02T00:03:56.487Z,0
2018-01-02T00:04:37.009Z,0
2018-01-02T00:05:17.520Z,0
2018-01-02T00:05:58.056Z,0
2018-01-02T00:06:38.587Z,0
2018-01-02T00:07:19.103Z,0
2018-01-02T00:07:59.637Z,0
2018-01-02T00:08:40.144Z,0
2018-01-02T00:09:20.656Z,0
2018-01-02T00:10:01.161Z,0
2018-01-02T00:10:41.668Z,0
2018-01-02T00:11:22.186Z,0
2018-01-02T00:12:02.716Z,0
2018-01-02T00:12:43.249Z,0
2018-01-02T00:13:23.785Z,0
2018-01-02T00:14:04.310Z,0
2018-01-02T00:14:44.812Z,0
2018-01-02T00:15:25.350Z,0
2018-01-02T00:16:05.887Z,0
2018-01-02T00:16:46.413Z,0
2018-01-02T00:17:26.918Z,0
2018-01-02T00:18:07.466Z,0
2018-01-02T00:18:47.972Z,0
2018-01-02T00:19:28.478Z,0
2018-01-02T00:20:09.024Z,0
2018-01-02T00:20:49.552Z,0
2018-01-02T00:21:30.053Z,0
2018-01-02T00:22:10.584Z,0
2018-01-02T00:22:51.105Z,0
2018-01-02T00:23:31.627Z,0
2018-01-02T00:24:12.123Z,0
2018-01-02T00:24:52.655Z,0
2018-01-02T00:25:33.138Z,0
2018-01-02T00:26:13.643Z,0
2018-01-02T00:26:54.171Z,0
2018-01-02T00:27:34.685Z,0
2018-01-02T00:28:15.205Z,0
2018-01-02T00:28:55.715Z,0
2018-01-02T00:29:36.236Z,0
2018-01-02T00:30:16.755Z,0
2018-01-02T00:30:57.230Z,0
2018-01-02T00:31:37.754Z,0
2018-01-02T00:32:18.276Z,0
2018-01-02T00:32:58.812Z,0
2018-01-02T00:33:39.331Z,0
2018-01-02T00:34:19.853Z,0
2018-01-02T00:35:00.372Z,0
2018-01-02T00:35:40.913Z,0
2018-01-02T00:36:21.407Z,0
2018-01-02T00:37:01.937Z,0
2018-01-02T00:37:42.461Z,0
2018-01-02T00:38:22.964Z,0
2018-01-02T00:39:03.489Z,0
2018-01-02T00:39:44.027Z,0
2018-01-02T00:40:24.575Z,0
2018-01-02T00:41:05.062Z,0
2018-01-02T00:41:45.597Z,0
2018-01-02T00:42:26.131Z,0
2018-01-02T00:43:06.652Z,0
2018-01-02T00:43:47.161Z,0
2018-01-02T00:44:27.676Z,0
2018-01-02T00:45:08.185Z,0
2018-01-02T00:45:48.739Z,0
2018-01-02T00:46:29.258Z,0
2018-01-02T00:47:09.779Z,0
2018-01-02T00:47:50.285Z,0
2018-01-02T00:48:30.788Z,0
2018-01-02T00:49:11.320Z,0
2018-01-02T00:49:51.845Z,0
2018-01-02T00:50:32.365Z,0
2018-01-02T00:51:12.900Z,0
2018-01-02T00:51:53.436Z,0
2018-01-02T00:52:33.938Z,0
2018-01-02T00:53:14.473Z,0
2018-01-02T00:53:55.011Z,0
2018-01-02T00:54:35.537Z,0
2018-01-02T00:55:16.056Z,0
2018-01-02T00:55:56.575Z,0
2018-01-02T00:56:37.115Z,0
2018-01-02T00:57:17.655Z,0
2018-01-02T00:57:58.174Z,0
2018-01-02T00:58:38.685Z,0
2018-01-02T00:59:19.217Z,0
2018-01-02T00:59:59.729Z,0
2018-01-02T01:00:40.259Z,0
2018-01-02T01:01:20.765Z,0
2018-01-02T01:02:01.300Z,0
2018-01-02T01:02:41.827Z,0
2018-01-02T01:03:22.338Z,0
2018-01-02T01:04:02.900Z,0
2018-01-02T01:04:43.417Z,0
2018-01-02T01:05:23.934Z,0
2018-01-02T01:06:04.463Z,0
2018-01-02T01:06:44.957Z,0
2018-01-02T01:07:25.476Z,0
2018-01-02T01:08:05.978Z,0
2018-01-02T01:08:46.494Z,0
2018-01-02T01:09:27.022Z,0
2018-01-02T01:10:07.547Z,0
2018-01-02T01:10:48.070Z,0
2018-01-02T01:11:28.607Z,0
2018-01-02T01:12:09.121Z,0
2018-01-02T01:12:49.621Z,0
2018-01-02T01:13:30.115Z,0
2018-01-02T01:14:10.666Z,0
2018-01-02T01:14:51.182Z,0
2018-01-02T01:15:31.724Z,0
2018-01-02T01:16:12.243Z,0
2018-01-02T01:16:52.767Z,0
2018-01-02T01:17:33.291Z,0
2018-01-02T01:18:13.818Z,0
2018-01-02T01:18:54.355Z,0
2018-01-02T01:19:34.888Z,0
2018-01-02T01:20:15.395Z,0
2018-01-02T01:20:55.924Z,0
2018-01-02T01:21:36.450Z,0
2018-01-02T01:22:16.965Z,0
2018-01-02T01:22:57.484Z,0
2018-01-02T01:23:38.009Z,0
2018-01-02T01:24:18.525Z,0
2018-01-02T01:24:59.043Z,0
2018-01-02T01:25:39.572Z,0
2018-01-02T01:26:20.105Z,0
2018-01-02T01:27:00.642Z,0
2018-01-02T01:27:41.137Z,0
2018-01-02T01:28:21.673Z,0
2018-01-02T01:29:02.200Z,0
2018-01-02T01:29:42.727Z,0
2018-01-02T01:30:23.253Z,0
2018-01-02T01:31:03.765Z,0
2018-01-02T01:31:44.289Z,0
2018-01-02T01:32:24.808Z,0
2018-01-02T01:33:05.327Z,0
2018-01-02T01:33:45.837Z,0
2018-01-02T01:34:26.357Z,0
2018-01-02T01:35:06.884Z,0
2018-01-02T01:35:47.410Z,0
2018-01-02T01:36:27.939Z,0
2018-01-02T01:37:08.444Z,0
2018-01-02T01:37:48.982Z,0
2018-01-02T01:38:29.496Z,0
2018-01-02T01:39:09.998Z,0
2018-01-02T01:39:50.528Z,0
2018-01-02T01:40:31.064Z,0
2018-01-02T01:41:11.580Z,0
2018-01-02T01:41:52.101Z,0
2018-01-02T01:42:32.637Z,0
2018-01-02T01:43:13.150Z,0
2018-01-02T01:43:53.692Z,0
2018-01-02T01:44:34.199Z,0
2018-01-02T01:45:14.712Z,0
2018-01-02T01:45:55.236Z,0
2018-01-02T01:46:35.752Z,0
2018-01-02T01:47:16.278Z,0
2018-01-02T01:47:56.809Z,0
2018-01-02T01:48:37.323Z,0
2018-01-02T01:49:17.842Z,0
2018-01-02T01:49:58.371Z,0
2018-01-02T01:50:38.898Z,0
2018-01-02T01:51:19.443Z,0
2018-01-02T01:51:59.962Z,0
2018-01-02T01:52:40.482Z,0
2018-01-02T01:53:21.009Z,0
2018-01-02T01:54:01.535Z,0
2018-01-02T01:54:42.038Z,0
2018-01-02T01:55:22.568Z,0
2018-01-02T01:56:03.105Z,0
2018-01-02T01:56:43.645Z,0
2018-01-02T01:57:24.161Z,0
2018-01-02T01:58:04.687Z,0
2018-01-02T01:58:45.224Z,0
2018-01-02T01:59:25.731Z,0
2018-01-02T02:00:06.248Z,0
2018-01-02T02:00:46.785Z,0
2018-01-02T02:01:27.312Z,0
2018-01-02T02:02:07.840Z,0
2018-01-02T02:02:48.351Z,0
2018-01-02T02:03:28.885Z,0
2018-01-02T02:04:09.410Z,0
2018-01-02T02:04:49.937Z,0
2018-01-02T02:05:30.446Z,0
2018-01-02T02:06:10.958Z,0
2018-01-02T02:06:51.490Z,0
2018-01-02T02:07:32.001Z,0
2018-01-02T02:08:12.536Z,0
2018-01-02T02:08:53.067Z,0
2018-01-02T02:09:33.600Z,0
2018-01-02T02:10:14.121Z,0
2018-01-02T02:10:54.642Z,0
2018-01-02T02:11:35.152Z,0
2018-01-02T02:12:15.640Z,0
2018-01-02T02:12:56.161Z,0
2018-01-02T02:13:36.686Z,0
2018-01-02T02:14:17.212Z,0
2018-01-02T02:14:57.729Z,0
2018-01-02T02:15:38.260Z,0
2018-01-02T02:16:18.795Z,0
2018-01-02T02:16:59.334Z,0
2018-01-02T02:17:39.853Z,0
2018-01-02T02:18:20.371Z,0
2018-01-02T02:19:00.899Z,0
2018-01-02T02:19:41.399Z,0
2018-01-02T02:20:21.912Z,0
2018-01-02T02:21:02.415Z,0
2018-01-02T02:21:42.950Z,0
2018-01-02T02:22:23.477Z,0
2018-01-02T02:23:03.987Z,0
2018-01-02T02:23:44.509Z,0
2018-01-02T02:24:25.047Z,0
2018-01-02T02:25:05.569Z,0
2018-01-02T02:25:46.090Z,0
2018-01-02T02:26:26.604Z,0
2018-01-02T02:27:07.143Z,0
2018-01-02T02:27:47.670Z,0
2018-01-02T02:28:28.182Z,0
2018-01-02T02:29:08.706Z,0
2018-01-02T02:29:49.246Z,0
2018-01-02T02:30:29.778Z,0
2018-01-02T02:31:10.298Z,0
2018-01-02T02:31:50.810Z,0
2018-01-02T02:32:31.345Z,0
2018-01-02T02:33:11.857Z,0
2018-01-02T02:33:52.369Z,0
2018-01-02T02:34:32.895Z,0
2018-01-02T02:35:13.420Z,0
2018-01-02T02:35:53.942Z,0
2018-01-02T02:36:34.456Z,0
2018-01-02T02:37:14.962Z,0
2018-01-02T02:37:55.451Z,0
2018-01-02T02:38:35.978Z,0
2018-01-02T02:39:16.497Z,0
2018-01-02T02:39:57.032Z,0
2018-01-02T02:40:37.544Z,0
2018-01-02T02:41:18.087Z,0
2018-01-02T02:41:58.612Z,0
2018-01-02T02:42:39.124Z,0
2018-01-02T02:43:19.649Z,0
2018-01-02T02:44:00.183Z,0
2018-01-02T02:44:40.701Z,0
2018-01-02T02:45:21.215Z,0
2018-01-02T02:46:01.724Z,0
2018-01-02T02:46:42.248Z,0
2018-01-02T02:47:22.761Z,0
2018-01-02T02:48:03.307Z,0
2018-01-02T02:48:43.852Z,0
2018-01-02T02:49:24.386Z,0
2018-01-02T02:50:04.911Z,0
2018-01-02T02:50:45.429Z,0
2018-01-02T02:51:25.957Z,0
2018-01-02T02:52:06.485Z,0
2018-01-02T02:52:47.019Z,0
2018-01-02T02:53:27.553Z,0
2018-01-02T02:54:08.062Z,0
2018-01-02T02:54:48.571Z,0
2018-01-02T02:55:29.103Z,0
2018-01-02T02:56:09.612Z,0
2018-01-02T02:56:50.139Z,0
2018-01-02T02:57:30.625Z,0
2018-01-02T02:58:11.155Z,0
2018-01-02T02:58:51.688Z,0
2018-01-02T02:59:32.217Z,0
2018-01-02T03:00:12.733Z,0
2018-01-02T03:00:53.272Z,0
2018-01-02T03:01:33.786Z,0
2018-01-02T03:02:14.314Z,0
2018-01-02T03:02:54.852Z,0
2018-01-02T03:03:35.374Z,0
2018-01-02T03:04:15.911Z,0
2018-01-02T03:04:56.436Z,0
2018-01-02T03:05:36.968Z,0
2018-01-02T03:06:17.489Z,0
2018-01-02T03:06:58.044Z,0
2018-01-02T03:07:38.573Z,0
2018-01-02T03:08:19.109Z,0
2018-01-02T03:08:59.639Z,0
2018-01-02T03:09:40.154Z,0
2018-01-02T03:10:20.697Z,0
2018-01-02T03:11:01.210Z,0
2018-01-02T03:11:41.731Z,0
2018-01-02T03:12:22.258Z,0
2018-01-02T03:13:02.771Z,0
2018-01-02T03:13:43.296Z,0
2018-01-02T03:14:23.821Z,0
2018-01-02T03:15:04.336Z,0
2018-01-02T03:15:44.851Z,0
2018-01-02T03:16:25.378Z,0
2018-01-02T03:17:05.894Z,0
2018-01-02T03:17:46.421Z,0
2018-01-02T03:18:26.930Z,0
2018-01-02T03:19:07.434Z,0
2018-01-02T03:19:47.965Z,0
2018-01-02T03:20:28.496Z,0
2018-01-02T03:21:09.017Z,0
2018-01-02T03:21:49.523Z,0
2018-01-02T03:22:30.063Z,0
2018-01-02T03:23:10.599Z,0
2018-01-02T03:23:51.113Z,0
2018-01-02T03:24:31.625Z,0
2018-01-02T03:25:12.211Z,0
2018-01-02T03:25:52.738Z,0
2018-01-02T03:26:33.267Z,0
2018-01-02T03:27:13.787Z,0
2018-01-02T03:27:54.310Z,0
2018-01-02T03:28:34.817Z,0
2018-01-02T03:29:15.352Z,0
2018-01-02T03:29:55.866Z,0
2018-01-02T03:30:36.391Z,0
2018-01-02T03:31:16.923Z,0
2018-01-02T03:31:57.460Z,0
2018-01-02T03:32:37.997Z,0
2018-01-02T03:33:18.502Z,0
2018-01-02T03:33:59.025Z,0
2018-01-02T03:34:39.541Z,0
2018-01-02T03:35:20.085Z,0
2018-01-02T03:36:00.602Z,0
2018-01-02T03:36:41.127Z,0
2018-01-02T03:37:21.659Z,0
2018-01-02T03:38:02.187Z,0
2018-01-02T03:38:42.703Z,0
2018-01-02T03:39:23.227Z,0
2018-01-02T03:40:03.748Z,0
2018-01-02T03:40:44.275Z,0
2018-01-02T03:41:24.789Z,0
2018-01-02T03:42:05.291Z,0
2018-01-02T03:42:45.801Z,0
2018-01-02T03:43:26.327Z,0
2018-01-02T03:44:06.845Z,0
2018-01-02T03:44:47.372Z,0
2018-01-02T03:45:27.888Z,0
2018-01-02T03:46:08.421Z,0
2018-01-02T03:46:48.980Z,0
2018-01-02T03:47:29.509Z,0
2018-01-02T03:48:10.043Z,0
2018-01-02T03:48:50.578Z,0
2018-01-02T03:49:31.087Z,0
2018-01-02T03:50:11.614Z,0
2018-01-02T03:50:52.146Z,0
2018-01-02T03:51:32.664Z,0
2018-01-02T03:52:13.183Z,0
2018-01-02T03:52:53.704Z,0
2018-01-02T03:53:34.226Z,0
2018-01-02T03:54:14.752Z,0
2018-01-02T03:54:55.283Z,0
2018-01-02T03:55:35.815Z,0
2018-01-02T03:56:16.342Z,0
2018-01-02T03:56:56.865Z,0
2018-01-02T03:57:37.394Z,0
2018-01-02T03:58:17.930Z,0
2018-01-02T03:58:58.463Z,0
2018-01-02T03:59:38.994Z,0
2018-01-02T04:00:19.514Z,0
2018-01-02T04:01:00.057Z,0
2018-01-02T04:01:40.573Z,0
2018-01-02T04:02:21.102Z,0
2018-01-02T04:03:01.642Z,0
2018-01-02T04:03:42.214Z,0
2018-01-02T04:04:22.754Z,0
2018-01-02T04:05:03.302Z,0
2018-01-02T04:05:43.821Z,0
2018-01-02T04:06:24.350Z,0
2018-01-02T04:07:04.878Z,0
2018-01-02T04:07:45.401Z,0
2018-01-02T04:08:25.914Z,0
2018-01-02T04:09:06.439Z,0
2018-01-02T04:09:46.979Z,0
2018-01-02T04:10:27.506Z,0
2018-01-02T04:11:08.034Z,0
2018-01-02T04:11:48.569Z,0
2018-01-02T04:12:29.096Z,0
2018-01-02T04:13:09.628Z,0
2018-01-02T04:13:50.157Z,0
2018-01-02T04:14:30.679Z,0
2018-01-02T04:15:11.202Z,0
2018-01-02T04:15:51.730Z,0
2018-01-02T04:16:32.262Z,0
2018-01-02T04:17:12.804Z,0
2018-01-02T04:17:53.348Z,0
2018-01-02T04:18:33.868Z,0
2018-01-02T04:19:14.381Z,0
2018-01-02T04:19:54.913Z,0
2018-01-02T04:20:35.439Z,0
2018-01-02T04:21:15.955Z,0
2018-01-02T04:21:56.476Z,0
2018-01-02T04:22:37.010Z,0
2018-01-02T04:23:17.529Z,0
2018-01-02T04:23:58.058Z,0
2018-01-02T04:24:38.582Z,0
2018-01-02T04:25:19.112Z,0
2018-01-02T04:25:59.644Z,0
2018-01-02T04:26:40.174Z,0
2018-01-02T04:27:20.708Z,0
2018-01-02T04:28:01.242Z,0
2018-01-02T04:28:41.767Z,0
2018-01-02T04:29:22.315Z,0
2018-01-02T04:30:02.831Z,0
2018-01-02T04:30:43.358Z,0
2018-01-02T04:31:23.891Z,0
2018-01-02T04:32:04.422Z,0
2018-01-02T04:32:44.957Z,0
2018-01-02T04:33:25.487Z,0
2018-01-02T04:34:06.019Z,0
2018-01-02T04:34:46.545Z,0
2018-01-02T04:35:27.085Z,0
2018-01-02T04:36:07.609Z,0
2018-01-02T04:36:48.140Z,0
2018-01-02T04:37:28.666Z,0
2018-01-02T04:38:09.206Z,0
2018-01-02T04:38:49.740Z,0
2018-01-02T04:39:30.266Z,0
2018-01-02T04:40:10.804Z,0
2018-01-02T04:40:51.319Z,0
2018-01-02T04:41:31.857Z,0
2018-01-02T04:42:12.402Z,0
2018-01-02T04:42:52.917Z,0
2018-01-02T04:43:33.440Z,0
2018-01-02T04:44:13.968Z,0
2018-01-02T04:44:54.489Z,0
2018-01-02T04:45:35.024Z,0
2018-01-02T04:46:15.536Z,0
2018-01-02T04:46:56.060Z,0
2018-01-02T04:47:36.590Z,0
2018-01-02T04:48:17.161Z,0
2018-01-02T04:48:57.696Z,0
2018-01-02T04:49:38.214Z,0
2018-01-02T04:50:18.738Z,0
2018-01-02T04:50:59.255Z,0
2018-01-02T04:51:39.813Z,0
2018-01-02T04:52:20.342Z,0
2018-01-02T04:53:00.861Z,0
2018-01-02T04:53:41.368Z,0
2018-01-02T04:54:21.886Z,0
2018-01-02T04:55:02.402Z,0
2018-01-02T04:55:42.933Z,0
2018-01-02T04:56:23.470Z,0
2018-01-02T04:57:03.996Z,0
2018-01-02T04:57:44.514Z,0
2018-01-02T04:58:25.050Z,0
2018-01-02T04:59:05.568Z,0
2018-01-02T04:59:46.090Z,0
2018-01-02T05:00:26.634Z,0
2018-01-02T05:01:07.154Z,0
2018-01-02T05:01:47.682Z,0
2018-01-02T05:02:28.221Z,0
2018-01-02T05:03:08.749Z,0
2018-01-02T05:03:49.278Z,0
2018-01-02T05:04:29.793Z,0
2018-01-02T05:05:10.322Z,0
2018-01-02T05:05:50.855Z,0
2018-01-02T05:06:31.383Z,0
2018-01-02T05:07:11.953Z,0
2018-01-02T05:07:52.449Z,0
2018-01-02T05:08:32.991Z,0
2018-01-02T05:09:13.509Z,0
2018-01-02T05:09:54.044Z,0
2018-01-02T05:10:34.545Z,0
2018-01-02T05:11:15.074Z,0
2018-01-02T05:11:55.594Z,0
2018-01-02T05:12:36.095Z,0
2018-01-02T05:13:16.622Z,0
2018-01-02T05:13:57.208Z,0
2018-01-02T05:14:37.769Z,0
2018-01-02T05:15:18.310Z,0
2018-01-02T05:15:58.834Z,0
2018-01-02T05:16:39.345Z,0
2018-01-02T05:17:19.865Z,0
2018-01-02T05:18:00.380Z,0
2018-01-02T05:18:40.908Z,0
2018-01-02T05:19:21.422Z,0
2018-01-02T05:20:01.976Z,0
2018-01-02T05:20:42.488Z,0
2018-01-02T05:21:23.021Z,0
2018-01-02T05:22:03.547Z,0
2018-01-02T05:22:44.087Z,0
2018-01-02T05:23:24.587Z,0
2018-01-02T05:24:05.123Z,0
2018-01-02T05:24:45.630Z,0
2018-01-02T05:25:26.135Z,0
2018-01-02T05:26:06.653Z,0
2018-01-02T05:26:47.209Z,0
2018-01-02T05:27:27.728Z,0
2018-01-02T05:28:08.233Z,0
2018-01-02T05:28:48.751Z,0
2018-01-02T05:29:29.261Z,0
2018-01-02T05:30:09.781Z,0
2018-01-02T05:30:50.305Z,0
2018-01-02T05:31:30.833Z,0
2018-01-02T05:32:11.386Z,0
2018-01-02T05:32:51.912Z,0
2018-01-02T05:33:32.459Z,0
2018-01-02T05:34:13.054Z,0
2018-01-02T05:34:53.579Z,0
2018-01-02T05:35:34.072Z,0
2018-01-02T05:36:14.588Z,0
2018-01-02T05:36:55.111Z,0
2018-01-02T05:37:35.645Z,0
2018-01-02T05:38:16.179Z,0
2018-01-02T05:38:56.715Z,0
2018-01-02T05:39:37.223Z,0
2018-01-02T05:40:17.745Z,0
2018-01-02T05:40:58.266Z,0
2018-01-02T05:41:38.799Z,0
2018-01-02T05:42:19.389Z,0
2018-01-02T05:42:59.887Z,0
2018-01-02T05:43:40.484Z,0
2018-01-02T05:44:21.016Z,0
2018-01-02T05:45:01.603Z,0
2018-01-02T05:45:42.121Z,0
2018-01-02T05:46:22.638Z,0
2018-01-02T05:47:03.154Z,0
2018-01-02T05:47:43.764Z,0
2018-01-02T05:48:24.301Z,0
2018-01-02T05:49:04.785Z,0
2018-01-02T05:49:45.385Z,0
2018-01-02T05:50:25.899Z,0
2018-01-02T05:51:06.424Z,0
2018-01-02T05:51:46.938Z,0
2018-01-02T05:52:27.447Z,0
2018-01-02T05:53:08.024Z,0
2018-01-02T05:53:48.522Z,0
2018-01-02T05:54:29.066Z,0
2018-01-02T05:55:09.585Z,0
2018-01-02T05:55:50.116Z,0
2018-01-02T05:56:30.635Z,0
2018-01-02T05:57:11.149Z,0
2018-01-02T05:57:51.706Z,0
2018-01-02T05:58:32.236Z,0
2018-01-02T05:59:12.743Z,0
2018-01-02T05:59:53.329Z,0
2018-01-02T06:00:33.825Z,0
2018-01-02T06:01:14.350Z,0
2018-01-02T06:01:54.875Z,0
2018-01-02T06:02:35.403Z,0
2018-01-02T06:03:15.924Z,0
2018-01-02T06:03:56.432Z,0
2018-01-02T06:04:36.957Z,0
2018-01-02T06:05:17.520Z,0
2018-01-02T06:05:58.037Z,0
2018-01-02T06:06:38.557Z,0
2018-01-02T06:07:19.067Z,0
2018-01-02T06:07:59.595Z,0
2018-01-02T06:08:40.120Z,0
2018-01-02T06:09:20.630Z,0
2018-01-02T06:10:01.163Z,0
2018-01-02T06:10:41.681Z,0
2018-01-02T06:11:22.234Z,0
2018-01-02T06:12:02.758Z,0
2018-01-02T06:12:43.323Z,0
2018-01-02T06:13:23.814Z,0
2018-01-02T06:14:04.368Z,0
2018-01-02T06:14:45.018Z,0
2018-01-02T06:15:25.579Z,0
2018-01-02T06:16:06.105Z,0
2018-01-02T06:16:46.640Z,0
2018-01-02T06:17:27.167Z,0
2018-01-02T06:18:07.780Z,0
2018-01-02T06:18:48.291Z,0
2018-01-02T06:19:28.827Z,0
2018-01-02T06:20:09.372Z,0
2018-01-02T06:20:49.857Z,0
2018-01-02T06:21:30.377Z,0
2018-01-02T06:22:10.901Z,0
2018-01-02T06:22:51.472Z,0
2018-01-02T06:23:32.032Z,0
2018-01-02T06:24:12.613Z,0
2018-01-02T06:24:53.128Z,0
2018-01-02T06:25:33.714Z,0
2018-01-02T06:26:14.273Z,0
2018-01-02T06:26:54.799Z,0
2018-01-02T06:27:35.298Z,0
2018-01-02T06:28:15.807Z,0
2018-01-02T06:28:56.315Z,0
2018-01-02T06:29:36.836Z,0
2018-01-02T06:30:17.343Z,0
2018-01-02T06:30:57.862Z,0
2018-01-02T06:31:38.437Z,0
2018-01-02T06:32:18.929Z,0
2018-01-02T06:32:59.477Z,0
2018-01-02T06:33:39.996Z,0
2018-01-02T06:34:20.540Z,0
2018-01-02T06:35:01.110Z,0
2018-01-02T06:35:41.648Z,0
2018-01-02T06:36:22.179Z,0
2018-01-02T06:37:02.691Z,0
2018-01-02T06:37:43.234Z,0
2018-01-02T06:38:23.752Z,0
2018-01-02T06:39:04.374Z,0
2018-01-02T06:39:44.878Z,0
2018-01-02T06:40:25.451Z,0
2018-01-02T06:41:05.988Z,0
2018-01-02T06:41:46.577Z,0
2018-01-02T06:42:27.096Z,0
2018-01-02T06:43:07.620Z,0
2018-01-02T06:43:48.150Z,0
2018-01-02T06:44:28.722Z,0
2018-01-02T06:45:09.254Z,0
2018-01-02T06:45:49.757Z,0
2018-01-02T06:46:30.256Z,0
2018-01-02T06:47:10.787Z,0
2018-01-02T06:47:51.314Z,0
2018-01-02T06:48:31.904Z,0
2018-01-02T06:49:12.506Z,0
2018-01-02T06:49:53.220Z,0
2018-01-02T06:50:33.940Z,0
2018-01-02T06:51:14.695Z,0
2018-01-02T06:51:55.229Z,0
2018-01-02T06:52:35.846Z,0
2018-01-02T06:53:16.352Z,0
2018-01-02T06:53:56.840Z,0
2018-01-02T06:54:37.582Z,0
2018-01-02T06:55:17.979Z,0
2018-01-02T06:55:58.517Z,0
2018-01-02T06:56:39.222Z,0
2018-01-02T06:57:19.594Z,0
2018-01-02T06:58:00.119Z,0
2018-01-02T06:58:40.778Z,0
2018-01-02T06:59:21.304Z,0
2018-01-02T07:00:01.840Z,0
2018-01-02T07:00:42.486Z,0
2018-01-02T07:01:23.053Z,0
2018-01-02T07:02:03.585Z,0
2018-01-02T07:02:44.098Z,0
2018-01-02T07:03:24.594Z,0
2018-01-02T07:04:05.129Z,0
2018-01-02T07:04:45.628Z,0
2018-01-02T07:05:26.241Z,0
2018-01-02T07:06:06.796Z,0
2018-01-02T07:06:47.307Z,0
2018-01-02T07:07:28.101Z,0
2018-01-02T07:08:08.860Z,0
2018-01-02T07:08:49.700Z,0
2018-01-02T07:09:30.230Z,0
2018-01-02T07:10:10.851Z,4
2018-01-02T07:10:51.651Z,4
2018-01-02T07:11:32.232Z,0
2018-01-02T07:12:12.907Z,4
2018-01-02T07:12:53.494Z,4
2018-01-02T07:13:34.104Z,4
2018-01-02T07:14:14.695Z,0
2018-01-02T07:14:55.207Z,4
2018-01-02T07:15:37.393Z,8
2018-01-02T07:16:17.979Z,8
2018-01-02T07:16:58.559Z,12
2018-01-02T07:17:39.208Z,8
2018-01-02T07:18:19.661Z,8
2018-01-02T07:19:00.286Z,12
2018-01-02T07:19:40.776Z,16
2018-01-02T07:20:21.325Z,20
2018-01-02T07:21:01.825Z,24
2018-01-02T07:21:42.359Z,24
2018-01-02T07:22:22.960Z,28
2018-01-02T07:23:04.523Z,28
2018-01-02T07:23:45.045Z,28
2018-01-02T07:24:25.559Z,28
2018-01-02T07:25:06.081Z,28
2018-01-02T07:25:46.594Z,28
2018-01-02T07:26:27.117Z,32
2018-01-02T07:27:07.720Z,32
2018-01-02T07:27:48.213Z,36
2018-01-02T07:28:28.759Z,32
2018-01-02T07:29:09.337Z,36
2018-01-02T07:29:50.049Z,40
2018-01-02T07:30:30.573Z,40
2018-01-02T07:31:11.487Z,44
2018-01-02T07:31:52.437Z,48
2018-01-02T07:32:32.964Z,56
2018-01-02T07:33:14.632Z,56
2018-01-02T07:33:55.452Z,60
2018-01-02T07:34:35.952Z,60
2018-01-02T07:35:16.997Z,68
2018-01-02T07:35:57.753Z,68
2018-01-02T07:36:38.516Z,76
2018-01-02T07:37:19.335Z,84
2018-01-02T07:38:00.023Z,88
2018-01-02T07:38:41.012Z,92
2018-01-02T07:39:21.561Z,96
2018-01-02T07:40:02.087Z,104
2018-01-02T07:40:42.821Z,116
2018-01-02T07:41:23.591Z,140
2018-01-02T07:42:04.102Z,160
2018-01-02T07:42:44.689Z,184
2018-01-02T07:43:25.483Z,212
2018-01-02T07:44:06.473Z,232
2018-01-02T07:44:47.426Z,244
2018-01-02T07:45:28.215Z,240
2018-01-02T07:46:09.105Z,244
2018-01-02T07:46:49.755Z,236
2018-01-02T07:47:30.375Z,220
2018-01-02T07:48:10.991Z,208
2018-01-02T07:48:51.596Z,216
2018-01-02T07:49:32.395Z,232
2018-01-02T07:50:13.872Z,248
2018-01-02T07:50:54.877Z,264
2018-01-02T07:51:35.643Z,260
2018-01-02T07:52:16.526Z,240
2018-01-02T07:52:57.160Z,248
2018-01-02T07:53:38.033Z,256
2018-01-02T07:54:18.713Z,264
2018-01-02T07:54:59.292Z,268
2018-01-02T07:55:39.812Z,272
2018-01-02T07:56:20.353Z,276
2018-01-02T07:57:00.924Z,284
2018-01-02T07:57:41.604Z,280
2018-01-02T07:58:22.202Z,280
2018-01-02T07:59:02.765Z,280
2018-01-02T07:59:43.293Z,276
2018-01-02T08:00:25.172Z,244
2018-01-02T08:01:05.603Z,216
2018-01-02T08:01:46.155Z,204
2018-01-02T08:02:26.679Z,196
2018-01-02T08:03:07.259Z,196
2018-01-02T08:03:47.775Z,208
2018-01-02T08:04:28.292Z,220
2018-01-02T08:05:08.807Z,248
2018-01-02T08:05:49.305Z,276
2018-01-02T08:06:29.852Z,284
2018-01-02T08:07:10.409Z,292
2018-01-02T08:07:50.944Z,272
2018-01-02T08:08:31.478Z,288
2018-01-02T08:09:12.010Z,304
2018-01-02T08:09:52.721Z,272
2018-01-02T08:10:33.303Z,244
2018-01-02T08:11:13.820Z,252
2018-01-02T08:11:54.360Z,208
2018-01-02T08:12:34.871Z,200
2018-01-02T08:13:15.508Z,196
2018-01-02T08:13:56.089Z,208
2018-01-02T08:14:36.627Z,212
2018-01-02T08:15:17.112Z,236
2018-01-02T08:15:57.777Z,220
2018-01-02T08:16:38.515Z,200
2018-01-02T08:17:19.491Z,224
2018-01-02T08:18:00.031Z,212
2018-01-02T08:18:40.650Z,196
2018-01-02T08:19:21.258Z,172
2018-01-02T08:20:01.794Z,192
2018-01-02T08:20:42.372Z,216
2018-01-02T08:21:22.907Z,228
2018-01-02T08:22:03.429Z,240
2018-01-02T08:22:43.954Z,268
2018-01-02T08:23:24.470Z,256
2018-01-02T08:24:04.993Z,240
2018-01-02T08:24:45.560Z,216
2018-01-02T08:25:26.420Z,240
2018-01-02T08:26:06.905Z,268
2018-01-02T08:26:47.462Z,276
2018-01-02T08:27:28.257Z,292
2018-01-02T08:28:08.806Z,344
2018-01-02T08:28:49.478Z,372
2018-01-02T08:29:30.895Z,400
2018-01-02T08:30:11.502Z,420
2018-01-02T08:30:52.068Z,404
2018-01-02T08:31:32.619Z,440
2018-01-02T08:32:13.127Z,516
2018-01-02T08:32:54.015Z,632
2018-01-02T08:33:34.566Z,680
2018-01-02T08:34:15.368Z,556
2018-01-02T08:34:57.585Z,448
2018-01-02T08:35:38.203Z,408
2018-01-02T08:36:19.516Z,392
2018-01-02T08:37:00.288Z,356
2018-01-02T08:37:40.956Z,396
2018-01-02T08:38:21.765Z,416
2018-01-02T08:39:02.746Z,332
2018-01-02T08:39:43.579Z,324
2018-01-02T08:40:24.242Z,356
2018-01-02T08:41:04.752Z,336
2018-01-02T08:41:46.567Z,308
2018-01-02T08:42:27.179Z,356
2018-01-02T08:43:07.724Z,364
2018-01-02T08:43:48.419Z,376
2018-01-02T08:44:29.330Z,380
2018-01-02T08:45:10.235Z,384
2018-01-02T08:45:51.051Z,408
2018-01-02T08:46:31.804Z,408
2018-01-02T08:47:12.333Z,428
2018-01-02T08:47:53.025Z,420
2018-01-02T08:48:33.581Z,412
2018-01-02T08:49:14.558Z,416
2018-01-02T08:49:55.335Z,436
2018-01-02T08:50:35.988Z,472
2018-01-02T08:51:16.860Z,548
2018-01-02T08:51:57.819Z,612
2018-01-02T08:52:38.277Z,608
2018-01-02T08:53:18.949Z,596
2018-01-02T08:53:59.673Z,540
2018-01-02T08:54:40.423Z,524
2018-01-02T08:55:21.073Z,524
2018-01-02T08:56:01.699Z,520
2018-01-02T08:56:42.483Z,504
2018-01-02T08:57:22.924Z,500
2018-01-02T08:58:03.459Z,516
2018-01-02T08:58:44.079Z,544
2018-01-02T08:59:25.608Z,556
2018-01-02T09:00:06.606Z,560
2018-01-02T09:00:47.461Z,568
2018-01-02T09:01:27.978Z,580
2018-01-02T09:02:08.738Z,592
2018-01-02T09:02:49.572Z,596
2018-01-02T09:03:30.380Z,612
2018-01-02T09:04:11.303Z,608
2018-01-02T09:04:52.025Z,624
2018-01-02T09:05:32.609Z,664
2018-01-02T09:06:13.528Z,648
2018-01-02T09:06:54.121Z,616
2018-01-02T09:07:34.658Z,616
2018-01-02T09:08:15.258Z,684
2018-01-02T09:08:55.780Z,708
2018-01-02T09:09:36.301Z,768
2018-01-02T09:10:16.834Z,804
2018-01-02T09:10:57.360Z,848
2018-01-02T09:11:37.890Z,880
2018-01-02T09:12:18.428Z,904
2018-01-02T09:12:58.956Z,948
2018-01-02T09:13:39.485Z,968
2018-01-02T09:14:20.014Z,976
2018-01-02T09:15:00.536Z,956
2018-01-02T09:15:41.076Z,868
2018-01-02T09:16:21.562Z,836
2018-01-02T09:17:02.072Z,824
2018-01-02T09:17:42.609Z,892
2018-01-02T09:18:23.122Z,940
2018-01-02T09:19:03.649Z,960
2018-01-02T09:19:44.184Z,1004
2018-01-02T09:20:24.716Z,988
2018-01-02T09:21:05.238Z,1028
2018-01-02T09:21:45.815Z,1056
2018-01-02T09:22:26.287Z,1096
2018-01-02T09:23:06.917Z,1260
2018-01-02T09:23:47.429Z,1236
2018-01-02T09:24:27.938Z,1184
2018-01-02T09:25:08.453Z,1140
2018-01-02T09:25:48.984Z,1088
2018-01-02T09:26:29.497Z,1112
2018-01-02T09:27:10.064Z,1140
2018-01-02T09:27:50.612Z,1168
2018-01-02T09:28:31.140Z,1132
2018-01-02T09:29:11.644Z,1108
2018-01-02T09:29:52.160Z,1236
2018-01-02T09:30:32.674Z,1284
2018-01-02T09:31:13.207Z,1324
2018-01-02T09:31:53.722Z,1484
2018-01-02T09:32:34.254Z,1752
2018-01-02T09:33:14.811Z,1880
2018-01-02T09:33:55.347Z,2116
2018-01-02T09:34:35.884Z,2396
2018-01-02T09:35:16.462Z,2592
2018-01-02T09:35:56.986Z,2596
2018-01-02T09:36:37.524Z,2456
2018-01-02T09:37:18.015Z,2496
2018-01-02T09:37:58.548Z,2452
2018-01-02T09:38:39.089Z,2172
2018-01-02T09:39:19.604Z,2012
2018-01-02T09:40:00.123Z,1912
2018-01-02T09:40:40.646Z,1792
2018-01-02T09:41:21.181Z,1728
2018-01-02T09:42:01.693Z,1808
2018-01-02T09:42:42.227Z,1932
2018-01-02T09:43:22.741Z,2160
2018-01-02T09:44:03.247Z,2352
2018-01-02T09:44:43.761Z,2348
2018-01-02T09:45:24.288Z,2156
2018-01-02T09:46:04.814Z,2104
2018-01-02T09:46:45.343Z,2104
2018-01-02T09:47:25.871Z,2252
2018-01-02T09:48:06.409Z,2384
2018-01-02T09:48:46.915Z,2224